Time;durP1;ratioP1;P1;durP2;ratioP2;P2;SDS_P1;SDS_P2;PMS_P1;PMS_P2;Temp;Humidity;BMP_temperature;BMP_pressure;BME280_temperature;BME280_humidity;BME280_pressure;Samples;Min_cycle;Max_cycle;Signal;HPM_P1;HPM_P2
2023/05/24 00:03:03;;;;;;;9.55;7.72;;;;;;;16.20;100.00;100385.13;5057486;56;1143087;-81
2023/05/24 00:08:09;;;;;;;10.33;7.57;;;;;;;16.12;100.00;100391.77;5069391;56;1140913;-79
2023/05/24 00:13:14;;;;;;;9.67;8.17;;;;;;;16.03;100.00;100393.56;5114210;56;1142916;-80
2023/05/24 00:18:20;;;;;;;14.03;8.70;;;;;;;15.95;100.00;100391.32;5094024;56;1140908;-78
2023/05/24 00:23:27;;;;;;;13.10;8.63;;;;;;;15.82;100.00;100393.91;5091924;56;1143071;-77
2023/05/24 00:28:33;;;;;;;11.97;6.43;;;;;;;15.74;100.00;100395.66;5054796;56;1143052;-79
2023/05/24 00:33:38;;;;;;;10.30;6.30;;;;;;;15.63;100.00;100402.58;5093636;56;1142968;-80
2023/05/24 00:38:44;;;;;;;14.17;6.10;;;;;;;15.57;100.00;100403.22;5100436;56;1143000;-78
2023/05/24 00:43:50;;;;;;;9.98;6.40;;;;;;;15.51;100.00;100407.78;5079361;56;1143077;-78
2023/05/24 00:48:57;;;;;;;7.00;5.50;;;;;;;15.39;100.00;100413.36;5114705;56;1140808;-78
2023/05/24 00:54:03;;;;;;;14.30;6.30;;;;;;;15.21;100.00;100409.84;5094128;56;1140847;-84
2023/05/24 00:59:09;;;;;;;10.90;7.42;;;;;;;15.06;100.00;100421.52;5093903;56;1142938;-79
2023/05/24 01:04:16;;;;;;;10.83;6.90;;;;;;;14.96;100.00;100428.73;5113519;56;1143068;-81
2023/05/24 01:09:44;;;;;;;12.70;6.97;;;;;;;14.82;100.00;100431.06;5082653;56;1142856;-76
2023/05/24 01:15:09;;;;;;;9.23;7.40;;;;;;;14.63;100.00;100437.31;5074895;57;1142937;-76
2023/05/24 01:20:17;;;;;;;16.00;8.43;;;;;;;14.51;100.00;100447.80;5074761;57;1140940;-75
2023/05/24 01:25:47;;;;;;;13.53;7.40;;;;;;;14.37;100.00;100456.55;5087785;57;1143490;-77
2023/05/24 01:30:54;;;;;;;15.27;10.07;;;;;;;14.37;100.00;100462.36;5089241;56;1143107;-78
2023/05/24 01:36:01;;;;;;;11.75;8.90;;;;;;;14.31;100.00;100465.13;5093772;56;1145059;-79
2023/05/24 01:41:17;;;;;;;9.63;7.47;;;;;;;14.31;100.00;100471.77;5113328;56;1142931;-80
2023/05/24 01:46:37;;;;;;;12.40;8.20;;;;;;;14.26;100.00;100480.67;5090414;56;1140804;-81
2023/05/24 01:51:50;;;;;;;14.93;10.17;;;;;;;14.16;100.00;100477.69;5095167;56;1143224;-79
2023/05/24 01:56:57;;;;;;;16.55;8.78;;;;;;;14.11;100.00;100481.26;5093620;56;1144967;-78
2023/05/24 02:02:04;;;;;;;8.55;6.75;;;;;;;14.04;100.00;100487.66;5137355;56;1142882;-81
2023/05/24 02:07:09;;;;;;;15.23;8.60;;;;;;;13.98;100.00;100474.91;5115034;56;1140793;-78
2023/05/24 02:12:15;;;;;;;17.83;7.77;;;;;;;13.94;100.00;100483.66;5041885;56;1142891;-77
2023/05/24 02:17:21;;;;;;;10.63;7.53;;;;;;;13.93;100.00;100481.13;5061324;56;1142838;-78
2023/05/24 02:22:27;;;;;;;11.57;7.10;;;;;;;13.93;100.00;100490.44;5041765;56;1142990;-79
2023/05/24 02:27:33;;;;;;;8.77;6.30;;;;;;;13.86;100.00;100478.22;5050146;56;1143027;-81
2023/05/24 02:32:39;;;;;;;8.47;5.40;;;;;;;13.87;100.00;100491.02;5145755;56;1140963;-81
2023/05/24 02:37:44;;;;;;;6.70;4.87;;;;;;;13.82;100.00;100491.92;5125268;56;1140919;-80
2023/05/24 02:42:50;;;;;;;8.30;6.50;;;;;;;13.83;100.00;100494.45;5124974;56;1140840;-77
2023/05/24 02:47:56;;;;;;;8.93;6.03;;;;;;;13.83;100.00;100504.23;5125964;56;1140995;-81
2023/05/24 02:53:01;;;;;;;6.47;4.85;;;;;;;13.81;100.00;100507.52;5145103;56;1140916;-81
2023/05/24 02:58:07;;;;;;;7.23;5.37;;;;;;;13.73;100.00;100498.44;5034445;56;1140870;-77
2023/05/24 03:03:13;;;;;;;4.40;3.77;;;;;;;13.71;100.00;100514.17;5070262;56;1140905;-79
2023/05/24 03:08:20;;;;;;;3.77;3.47;;;;;;;13.71;100.00;100514.17;5103969;56;1141000;-78
2023/05/24 03:13:26;;;;;;;5.50;3.80;;;;;;;13.69;100.00;100519.63;5031194;56;1141291;-79
2023/05/24 03:18:31;;;;;;;4.30;3.90;;;;;;;13.62;100.00;100522.48;5030954;56;1140805;-82
2023/05/24 03:23:37;;;;;;;4.20;3.63;;;;;;;13.54;100.00;100522.34;5050956;56;1140967;-78
2023/05/24 03:28:43;;;;;;;4.30;3.53;;;;;;;13.49;100.00;100529.88;5111036;56;1140897;-77
2023/05/24 03:33:50;;;;;;;3.43;3.10;;;;;;;13.46;100.00;100539.44;5092960;56;1140974;-78
2023/05/24 03:38:57;;;;;;;3.48;3.20;;;;;;;13.43;100.00;100542.88;5114880;55;1141039;-80
2023/05/24 03:44:02;;;;;;;5.62;2.83;;;;;;;13.42;100.00;100547.36;5061687;56;1140792;-85
2023/05/24 03:49:08;;;;;;;3.27;2.97;;;;;;;13.41;100.00;100551.47;5030327;56;1140899;-82
2023/05/24 03:54:16;;;;;;;2.87;2.63;;;;;;;13.37;100.00;100555.72;5107972;56;1140795;-81
2023/05/24 03:59:22;;;;;;;5.70;2.50;;;;;;;13.36;100.00;100555.86;5109429;56;1141092;-77
2023/05/24 04:04:28;;;;;;;3.03;2.73;;;;;;;13.36;100.00;100555.37;5078071;56;1141001;-75
2023/05/24 04:09:33;;;;;;;7.33;2.70;;;;;;;13.34;100.00;100558.64;5093166;56;1140943;-81
2023/05/24 04:14:39;;;;;;;3.13;2.83;;;;;;;13.28;100.00;100567.66;5146890;56;1141021;-83
2023/05/24 04:19:45;;;;;;;8.23;2.33;;;;;;;13.29;100.00;100568.83;5127057;56;1140763;-77
2023/05/24 04:24:51;;;;;;;2.67;2.40;;;;;;;13.19;100.00;100560.48;5118081;56;1141269;-74
2023/05/24 04:29:57;;;;;;;1.95;1.85;;;;;;;13.17;100.00;100575.70;5078085;56;1140832;-82
2023/05/24 04:35:03;;;;;;;2.65;1.92;;;;;;;13.16;100.00;100578.01;5061823;57;1140896;-85
2023/05/24 04:40:10;;;;;;;2.00;1.83;;;;;;;13.15;100.00;100574.52;5041784;57;1141035;-79
2023/05/24 04:45:15;;;;;;;2.13;2.03;;;;;;;13.22;100.00;100573.50;5093984;56;1140996;-77
2023/05/24 04:50:21;;;;;;;2.10;1.60;;;;;;;13.24;100.00;100594.97;5147155;56;1140803;-80
2023/05/24 04:55:26;;;;;;;3.13;1.30;;;;;;;13.23;100.00;100601.25;5126683;56;1140952;-77
2023/05/24 05:00:32;;;;;;;1.77;1.30;;;;;;;13.19;100.00;100605.63;5126872;56;1140998;-83
2023/05/24 05:05:38;;;;;;;1.97;1.60;;;;;;;13.24;100.00;100622.02;5064860;56;1141010;-80
2023/05/24 05:10:43;;;;;;;1.80;1.67;;;;;;;13.22;100.00;100638.08;5112741;55;1212705;-77
2023/05/24 05:15:50;;;;;;;4.12;1.45;;;;;;;13.26;100.00;100636.02;5115781;56;1146936;-77
2023/05/24 05:20:56;;;;;;;2.20;1.60;;;;;;;13.26;100.00;100641.33;5126412;56;1141092;-85
2023/05/24 05:26:01;;;;;;;2.77;2.20;;;;;;;13.19;100.00;100654.77;5101089;56;1140798;-81
2023/05/24 05:31:07;;;;;;;3.22;1.67;;;;;;;13.07;100.00;100651.33;5110935;56;1140937;-78
2023/05/24 05:36:13;;;;;;;2.03;1.90;;;;;;;12.95;100.00;100667.83;5126461;56;1140882;-83
2023/05/24 05:41:18;;;;;;;3.40;2.10;;;;;;;12.92;100.00;100661.93;5146135;56;1141007;-83
2023/05/24 05:46:24;;;;;;;1.97;1.87;;;;;;;12.89;100.00;100661.70;5125776;56;1141098;-82
2023/05/24 05:51:30;;;;;;;3.27;2.30;;;;;;;12.85;100.00;100661.59;5126247;56;1140800;-81
2023/05/24 05:56:40;;;;;;;3.73;3.53;;;;;;;12.77;100.00;100645.49;5146483;56;1140837;-77
2023/05/24 06:01:50;;;;;;;2.60;2.00;;;;;;;12.80;100.00;100647.89;5125948;56;1239122;-81
2023/05/24 06:06:51;;;;;;;6.33;2.27;;;;;;;12.82;100.00;100656.57;5128010;56;1258548;-78
2023/05/24 06:11:56;;;;;;;2.80;1.70;;;;;;;12.87;100.00;100659.66;5131163;55;1141479;-83
2023/05/24 06:17:02;;;;;;;1.90;1.80;;;;;;;12.96;100.00;100670.84;5150905;56;1141613;-81
2023/05/24 06:22:08;;;;;;;3.07;2.07;;;;;;;12.94;100.00;100690.03;5130727;56;1141483;-80
2023/05/24 06:27:13;;;;;;;6.33;2.80;;;;;;;12.99;100.00;100693.12;5123729;56;1141433;-82
2023/05/24 06:32:19;;;;;;;2.63;2.43;;;;;;;13.04;100.00;100696.72;5151027;56;1140712;-80
2023/05/24 06:37:25;;;;;;;7.43;3.20;;;;;;;13.05;100.00;100715.67;5128723;56;1257544;-83
2023/05/24 06:42:30;;;;;;;8.80;4.27;;;;;;;12.96;100.00;100723.94;5128485;56;1257356;-78
2023/05/24 06:47:36;;;;;;;5.33;4.40;;;;;;;12.84;100.00;100744.00;5150525;56;1140881;-80
2023/05/24 06:52:42;;;;;;;5.77;3.93;;;;;;;12.76;100.00;100750.45;5126830;56;1259613;-83
2023/05/24 06:57:47;;;;;;;9.87;4.50;;;;;;;12.80;100.00;100759.85;5128797;55;1258058;-82
2023/05/24 07:02:53;;;;;;;7.97;4.27;;;;;;;12.71;100.00;100759.27;5126528;56;1183227;-80
2023/05/24 07:07:59;;;;;;;6.92;4.75;;;;;;;12.56;100.00;100760.05;5119261;56;1140895;-85
2023/05/24 07:13:05;;;;;;;3.43;3.13;;;;;;;12.52;100.00;100766.59;5051621;56;1256780;-84
2023/05/24 07:18:11;;;;;;;5.13;4.00;;;;;;;12.55;100.00;100780.43;5119512;56;1257360;-77
2023/05/24 07:23:16;;;;;;;7.13;4.50;;;;;;;12.56;100.00;100779.46;5139491;56;1254812;-79
2023/05/24 07:28:22;;;;;;;6.77;4.07;;;;;;;12.62;100.00;100782.95;5068672;56;1140896;-76
2023/05/24 07:33:28;;;;;;;5.77;3.57;;;;;;;12.66;100.00;100782.23;5130618;56;1141057;-80
2023/05/24 07:38:34;;;;;;;6.40;4.10;;;;;;;12.70;100.00;100788.94;5150803;56;1140953;-75
2023/05/24 07:43:40;;;;;;;6.83;4.03;;;;;;;12.65;100.00;100796.45;5130523;56;1140969;-80
2023/05/24 07:48:46;;;;;;;8.57;4.17;;;;;;;12.65;100.00;100796.45;5130738;56;1140705;-77
2023/05/24 07:53:51;;;;;;;5.90;3.75;;;;;;;12.65;100.00;100804.42;5154885;56;1141102;-78
2023/05/24 07:59:03;;;;;;;6.90;3.83;;;;;;;12.57;100.00;100822.76;5167030;55;1140877;-77
2023/05/24 08:04:07;;;;;;;4.67;3.70;;;;;;;12.51;100.00;100825.93;5125544;56;1140935;-77
2023/05/24 08:09:12;;;;;;;7.20;4.83;;;;;;;12.46;100.00;100840.87;5065547;56;1141011;-80
2023/05/24 08:14:17;;;;;;;9.07;4.10;;;;;;;12.45;100.00;100852.45;4966036;58;1219854;-79
2023/05/24 08:19:23;;;;;;;5.60;4.27;;;;;;;12.50;100.00;100856.08;5013618;57;1140938;-79
2023/05/24 08:24:29;;;;;;;4.17;3.77;;;;;;;12.56;100.00;100862.20;5114418;56;1140794;-76
2023/05/24 08:29:36;;;;;;;6.47;4.23;;;;;;;12.49;100.00;100853.91;5134185;56;1140976;-82
2023/05/24 08:34:42;;;;;;;8.90;4.23;;;;;;;12.46;100.00;100855.47;5040190;56;1141115;-77
2023/05/24 08:39:48;;;;;;;4.90;3.33;;;;;;;12.48;100.00;100855.35;5024339;57;1221203;-75
2023/05/24 08:45:00;;;;;;;4.63;3.97;;;;;;;12.51;100.00;100860.42;5054473;56;1140884;-76
2023/05/24 08:50:08;;;;;;;7.03;4.93;;;;;;;12.51;100.00;100862.59;5132350;56;1140909;-74
2023/05/24 08:55:14;;;;;;;6.43;3.57;;;;;;;12.58;100.00;100878.36;5047393;56;1140850;-78
2023/05/24 09:00:20;;;;;;;3.50;3.20;;;;;;;12.62;100.00;100888.25;4954772;57;1140841;-76
2023/05/24 09:05:26;;;;;;;8.47;3.90;;;;;;;12.69;100.00;100887.62;5043367;57;1141038;-78
2023/05/24 09:10:34;;;;;;;5.43;4.00;;;;;;;12.80;100.00;100892.56;5051338;56;1140908;-84
2023/05/24 09:15:40;;;;;;;5.40;3.87;;;;;;;12.88;100.00;100898.08;4982117;57;1140866;-84
2023/05/24 09:20:45;;;;;;;6.50;4.73;;;;;;;12.97;100.00;100894.70;4950486;57;1141043;-77
2023/05/24 09:25:51;;;;;;;5.70;4.07;;;;;;;12.94;100.00;100905.56;5001670;57;1141018;-74
2023/05/24 09:31:03;;;;;;;4.67;4.28;;;;;;;12.97;100.00;100902.18;5001983;56;1141030;-74
2023/05/24 09:36:09;;;;;;;6.30;4.13;;;;;;;13.06;100.00;100911.67;5043668;57;1140976;-81
2023/05/24 09:41:14;;;;;;;5.72;4.62;;;;;;;13.16;100.00;100914.80;5023188;56;1140756;-78
2023/05/24 09:46:20;;;;;;;6.17;4.57;;;;;;;13.12;100.00;100921.81;5022998;57;1140809;-78
2023/05/24 09:51:26;;;;;;;4.93;4.27;;;;;;;13.18;100.00;100930.13;5043090;56;1140922;-79
2023/05/24 09:56:34;;;;;;;6.47;4.77;;;;;;;13.17;100.00;100927.59;5023590;56;1140796;-80
2023/05/24 10:01:40;;;;;;;8.30;5.20;;;;;;;13.15;100.00;100923.73;5018217;56;1140759;-80
2023/05/24 10:06:47;;;;;;;8.90;4.97;;;;;;;13.18;100.00;100927.48;4996072;57;1141078;-79
2023/05/24 10:11:53;;;;;;;8.53;4.40;;;;;;;13.30;100.00;100950.38;5007658;57;1140907;-75
2023/05/24 10:16:59;;;;;;;6.17;4.63;;;;;;;13.35;100.00;100936.23;5008440;56;1140985;-80
2023/05/24 10:22:10;;;;;;;8.80;4.72;;;;;;;13.31;100.00;100971.98;5028299;56;1140794;-85
2023/05/24 10:27:20;;;;;;;5.67;4.70;;;;;;;13.21;100.00;100955.13;5011818;57;1140811;-81
2023/05/24 10:32:30;;;;;;;9.20;4.97;;;;;;;13.25;100.00;100955.72;5061442;57;1140800;-77
2023/05/24 10:37:36;;;;;;;9.73;4.53;;;;;;;13.23;100.00;100963.81;5081245;57;1140809;-80
2023/05/24 10:42:44;;;;;;;13.90;6.00;;;;;;;13.29;100.00;100967.80;5052289;57;1140812;-78
2023/05/24 10:47:51;;;;;;;6.20;5.20;;;;;;;13.18;100.00;100970.45;4968355;58;1143207;-80
2023/05/24 10:53:17;;;;;;;9.63;4.73;;;;;;;13.16;100.00;100974.56;4963985;57;1141018;-79
2023/05/24 10:58:48;;;;;;;10.13;5.47;;;;;;;13.14;100.00;100975.65;4996570;57;1140886;-78
2023/05/24 11:04:12;;;;;;;7.37;5.53;;;;;;;13.13;100.00;100984.09;5050587;57;1142982;-78
2023/05/24 11:09:19;;;;;;;;;;;;;;;13.18;100.00;100976.61;5054898;56;1140956;-78
2023/05/24 11:14:27;;;;;;;11.30;6.43;;;;;;;13.22;100.00;100982.52;5096036;57;978033;-78
2023/05/24 11:19:40;;;;;;;13.47;6.93;;;;;;;13.32;100.00;100988.77;5064894;56;1140987;-78
2023/05/24 11:24:46;;;;;;;16.65;7.05;;;;;;;13.42;100.00;100980.42;5063536;56;1142997;-75
2023/05/24 11:29:53;;;;;;;14.67;6.43;;;;;;;13.51;100.00;100983.64;5058899;56;1143208;-74
2023/05/24 11:34:58;;;;;;;12.93;7.33;;;;;;;13.57;100.00;100986.29;5096010;56;1142846;-70
2023/05/24 11:40:05;;;;;;;13.58;6.53;;;;;;;13.50;100.00;100988.59;5093314;56;1142912;-71
2023/05/24 11:45:12;;;;;;;9.03;6.55;;;;;;;13.52;100.00;100995.12;5093326;56;1143298;-74
2023/05/24 11:50:24;;;;;;;15.93;6.73;;;;;;;13.53;100.00;100993.66;5113388;56;1141467;-78
2023/05/24 11:55:31;;;;;;;16.13;5.97;;;;;;;13.56;100.00;101007.19;5093215;56;1142939;-77
2023/05/24 12:00:37;;;;;;;12.63;7.10;;;;;;;13.54;100.00;100998.49;5081321;56;1142991;-77
2023/05/24 12:05:43;;;;;;;18.30;8.73;;;;;;;13.55;100.00;101002.36;5093615;57;1142915;-74
2023/05/24 12:10:50;;;;;;;18.67;7.83;;;;;;;13.58;100.00;101006.58;5090432;56;1142974;-82
2023/05/24 12:15:57;;;;;;;14.27;6.33;;;;;;;13.59;100.00;101017.58;5025014;56;1151121;-80
2023/05/24 12:21:05;;;;;;;16.62;6.96;;;;;;;13.56;100.00;101014.68;5103127;56;1143155;-78
2023/05/24 12:26:14;;;;;;;21.80;8.83;;;;;;;13.51;100.00;101015.53;5071031;56;1143032;-79
2023/05/24 12:31:20;;;;;;;17.80;8.43;;;;;;;13.53;100.00;101012.75;5091160;56;1143127;-75
2023/05/24 12:36:25;;;;;;;19.00;8.43;;;;;;;13.50;100.00;101010.34;5103305;56;1143051;-76
2023/05/24 12:41:31;;;;;;;24.93;10.43;;;;;;;13.45;100.00;101012.52;5088586;56;1142919;-78
2023/05/24 12:46:37;;;;;;;24.77;10.60;;;;;;;13.35;100.00;101010.63;5067532;56;1145039;-79
2023/05/24 12:51:42;;;;;;;13.70;6.50;;;;;;;13.44;100.00;101009.53;5103029;55;1144942;-77
2023/05/24 12:56:48;;;;;;;21.83;8.93;;;;;;;13.48;100.00;101018.91;5065114;56;1143282;-77
2023/05/24 13:01:54;;;;;;;18.20;7.97;;;;;;;13.54;100.00;101013.95;5091486;56;1143127;-74
2023/05/24 13:07:00;;;;;;;21.17;9.13;;;;;;;13.65;100.00;101011.73;5083689;56;1143185;-78
2023/05/24 13:12:06;;;;;;;13.70;7.17;;;;;;;13.64;100.00;101016.69;5123847;56;1142866;-75
2023/05/24 13:17:14;;;;;;;22.53;9.13;;;;;;;13.64;100.00;101024.66;5095462;56;1142926;-76
2023/05/24 13:22:20;;;;;;;13.23;7.07;;;;;;;13.51;100.00;101023.98;5093468;56;1142916;-74
2023/05/24 13:27:25;;;;;;;15.90;8.90;;;;;;;13.50;100.00;101027.61;5105917;56;1143028;-76
2023/05/24 13:32:32;;;;;;;22.63;9.83;;;;;;;13.51;100.00;101028.81;5090960;56;1142949;-77
2023/05/24 13:37:37;;;;;;;18.97;8.73;;;;;;;13.46;100.00;101032.80;5093427;56;1143075;-75
2023/05/24 13:42:43;;;;;;;22.57;9.70;;;;;;;13.43;100.00;101029.94;5105511;56;1143020;-77
2023/05/24 13:47:49;;;;;;;12.83;7.90;;;;;;;13.44;100.00;101025.47;5009863;57;1142897;-81
2023/05/24 13:52:54;;;;;;;16.73;8.53;;;;;;;13.53;100.00;101028.21;5065325;56;1142922;-79
2023/05/24 13:58:03;;;;;;;24.85;9.80;;;;;;;13.67;100.00;101034.56;5092265;56;1142963;-83
2023/05/24 14:03:08;;;;;;;19.20;7.22;;;;;;;13.73;100.00;101031.90;5094212;57;1143040;-74
2023/05/24 14:08:14;;;;;;;19.95;9.73;;;;;;;13.77;100.00;101027.99;5079166;56;1143087;-81
2023/05/24 14:13:20;;;;;;;19.40;8.37;;;;;;;13.64;100.00;101040.13;5092833;56;1143036;-79
2023/05/24 14:18:26;;;;;;;20.20;8.13;;;;;;;13.61;100.00;101039.05;5121574;56;1143200;-76
2023/05/24 14:23:31;;;;;;;22.03;9.13;;;;;;;13.57;100.00;101048.74;5099944;56;1143062;-84
2023/05/24 14:28:37;;;;;;;19.03;9.27;;;;;;;13.59;100.00;101046.81;5105207;56;1142919;-77
2023/05/24 14:33:43;;;;;;;19.63;9.47;;;;;;;13.55;100.00;101046.69;5108089;56;1143143;-74
2023/05/24 14:38:50;;;;;;;22.90;9.37;;;;;;;13.51;100.00;101050.56;5025589;56;1142909;-77
2023/05/24 14:43:56;;;;;;;17.30;8.27;;;;;;;13.45;100.00;101055.88;5022741;57;1143124;-74
2023/05/24 14:49:01;;;;;;;21.33;10.28;;;;;;;13.42;100.00;101064.61;5019948;57;1143273;-74
2023/05/24 14:54:07;;;;;;;19.45;8.30;;;;;;;13.47;100.00;101069.05;5037958;57;1145128;-78
2023/05/24 14:59:13;;;;;;;14.35;8.15;;;;;;;13.57;100.00;101060.70;5019537;56;1142865;-72
2023/05/24 15:04:18;;;;;;;21.30;9.37;;;;;;;13.53;100.00;101068.08;5023202;57;1142973;-78
2023/05/24 15:09:24;;;;;;;22.90;8.53;;;;;;;13.47;100.00;101075.20;5121868;56;1143234;-75
2023/05/24 15:14:30;;;;;;;17.07;7.90;;;;;;;13.45;100.00;101073.15;5106422;56;1143006;-78
2023/05/24 15:19:35;;;;;;;18.37;8.13;;;;;;;13.52;100.00;101067.71;5093212;56;1143184;-80
2023/05/24 15:24:41;;;;;;;15.90;8.23;;;;;;;13.52;100.00;101067.71;5112598;56;1143055;-80
2023/05/24 15:29:46;;;;;;;15.47;9.17;;;;;;;13.54;100.00;101067.59;5009716;55;1142939;-77
2023/05/24 15:34:52;;;;;;;18.63;9.63;;;;;;;13.54;100.00;101071.09;4974995;57;1142959;-79
2023/05/24 15:39:58;;;;;;;12.98;7.50;;;;;;;13.54;100.00;101069.77;4957230;57;1142917;-76
2023/05/24 15:45:04;;;;;;;16.23;8.37;;;;;;;13.49;100.00;101065.30;5027540;56;1143021;-78
2023/05/24 15:50:10;;;;;;;16.23;8.70;;;;;;;13.47;100.00;101067.71;4963787;57;1143010;-75
2023/05/24 15:55:16;;;;;;;16.75;8.05;;;;;;;13.44;100.00;101073.30;4927195;57;1142983;-76
2023/05/24 16:00:21;;;;;;;14.40;8.55;;;;;;;13.41;100.00;101076.20;4943900;58;1142959;-78
2023/05/24 16:05:27;;;;;;;15.37;8.40;;;;;;;13.37;100.00;101076.44;5000333;57;1142917;-78
2023/05/24 16:10:34;;;;;;;22.93;9.53;;;;;;;13.30;100.00;101077.88;4978948;56;1143058;-77
2023/05/24 16:15:41;;;;;;;18.80;8.87;;;;;;;13.29;100.00;101084.67;5068784;56;1143221;-79
2023/05/24 16:20:48;;;;;;;26.83;10.60;;;;;;;13.30;100.00;101084.53;5060543;56;1143206;-79
2023/05/24 16:25:54;;;;;;;16.13;9.33;;;;;;;13.29;100.00;101074.05;5092104;56;1145235;-79
2023/05/24 16:31:01;;;;;;;20.27;10.35;;;;;;;13.32;100.00;101079.09;5057658;56;1143178;-80
2023/05/24 16:36:07;;;;;;;18.02;10.16;;;;;;;13.41;100.00;101087.67;5112937;56;1154514;-77
2023/05/24 16:41:13;;;;;;;17.55;8.75;;;;;;;13.40;100.00;101083.81;5092118;56;1145018;-77
2023/05/24 16:46:18;;;;;;;17.10;8.43;;;;;;;13.40;100.00;101089.12;5091475;56;1143092;-80
2023/05/24 16:51:24;;;;;;;41.30;8.60;;;;;;;13.41;100.00;101083.69;5102505;56;1142929;-78
2023/05/24 16:56:30;;;;;;;19.00;9.00;;;;;;;13.47;100.00;101091.63;5093051;56;1142926;-79
2023/05/24 17:01:36;;;;;;;16.13;8.30;;;;;;;13.50;100.00;101097.55;5023161;56;1143165;-77
2023/05/24 17:06:42;;;;;;;19.07;9.37;;;;;;;13.38;100.00;101104.70;5091929;56;1142995;-78
2023/05/24 17:11:47;;;;;;;23.87;9.70;;;;;;;13.26;100.00;101091.56;5009546;57;1142836;-79
2023/05/24 17:16:53;;;;;;;20.07;9.00;;;;;;;13.25;100.00;101101.81;5024951;56;1142826;-77
2023/05/24 17:21:59;;;;;;;15.43;9.40;;;;;;;13.29;100.00;101105.93;5083377;56;1143272;-78
2023/05/24 17:27:05;;;;;;;13.10;9.17;;;;;;;13.23;100.00;101111.23;5051090;56;1143056;-79
2023/05/24 17:32:10;;;;;;;15.68;8.85;;;;;;;13.16;100.00;101113.15;5093796;56;1142954;-80
2023/05/24 17:37:16;;;;;;;24.73;11.20;;;;;;;13.10;100.00;101117.61;5094019;56;1143050;-79
2023/05/24 17:42:23;;;;;;;17.00;9.13;;;;;;;13.13;100.00;101130.17;5113518;56;1145200;-80
2023/05/24 17:47:29;;;;;;;16.57;10.10;;;;;;;13.11;100.00;101136.56;5066240;56;1142862;-79
2023/05/24 17:52:34;;;;;;;18.13;8.90;;;;;;;13.03;100.00;101136.66;5009529;57;1144874;-78
2023/05/24 17:57:40;;;;;;;13.47;8.23;;;;;;;13.03;100.00;101137.14;5082284;56;1143378;-81
2023/05/24 18:02:45;;;;;;;16.53;9.63;;;;;;;13.00;100.00;101136.05;5074425;57;1143130;-81
2023/05/24 18:07:52;;;;;;;13.37;8.10;;;;;;;13.03;100.00;101128.70;5055469;57;1143146;-78
2023/05/24 18:12:59;;;;;;;17.65;9.40;;;;;;;13.02;100.00;101142.94;5005207;57;1143085;-80
2023/05/24 18:18:04;;;;;;;19.50;9.63;;;;;;;12.99;100.00;101143.17;5062423;56;1147571;-79
2023/05/24 18:23:10;;;;;;;24.50;8.83;;;;;;;12.97;100.00;101146.94;5092598;56;1143021;-78
2023/05/24 18:28:16;;;;;;;19.82;8.35;;;;;;;12.93;100.00;101154.77;5023987;56;1142970;-78
2023/05/24 18:33:21;;;;;;;17.40;9.17;;;;;;;12.91;100.00;101159.34;5040039;56;1142993;-78
2023/05/24 18:38:28;;;;;;;11.57;8.67;;;;;;;12.81;100.00;101147.75;4926749;58;1143016;-78
2023/05/24 18:43:34;;;;;;;14.73;8.13;;;;;;;12.81;100.00;101147.75;5003978;57;1143066;-78
2023/05/24 18:48:41;;;;;;;15.47;8.33;;;;;;;12.80;100.00;101164.16;4948721;58;1142894;-78
2023/05/24 18:53:49;;;;;;;16.27;8.73;;;;;;;12.82;100.00;101168.03;5085288;56;1142969;-78
2023/05/24 18:58:57;;;;;;;17.75;8.40;;;;;;;12.84;100.00;101165.59;5058819;56;1142947;-81
2023/05/24 19:04:05;;;;;;;17.35;9.18;;;;;;;12.85;100.00;101178.38;5021567;56;1143307;-79
2023/05/24 19:09:11;;;;;;;15.03;7.53;;;;;;;12.85;100.00;101181.89;5042841;57;1143064;-78
2023/05/24 19:14:19;;;;;;;19.67;8.93;;;;;;;12.80;100.00;101197.34;5022992;55;1143047;-80
2023/05/24 19:19:23;;;;;;;12.90;7.87;;;;;;;12.75;100.00;101198.16;5016335;56;1142898;-81
2023/05/24 19:24:29;;;;;;;15.67;8.33;;;;;;;12.75;100.00;101198.16;5057681;56;1143010;-80
2023/05/24 19:29:38;;;;;;;14.73;7.90;;;;;;;12.74;100.00;101200.93;5042225;56;1142886;-82
2023/05/24 19:34:45;;;;;;;17.50;7.67;;;;;;;12.72;100.00;101201.05;5068811;56;1142953;-79
2023/05/24 19:39:50;;;;;;;10.70;6.70;;;;;;;12.72;100.00;101210.81;5035131;57;1143067;-80
2023/05/24 19:44:57;;;;;;;12.73;7.13;;;;;;;12.71;100.00;101209.12;5023420;56;1143494;-82
2023/05/24 19:50:05;;;;;;;10.80;6.70;;;;;;;12.73;100.00;101217.81;5021764;56;1143069;-82
2023/05/24 19:55:11;;;;;;;11.78;6.50;;;;;;;12.73;100.00;101214.68;5053715;56;1143337;-81
2023/05/24 20:00:17;;;;;;;11.08;6.65;;;;;;;12.74;100.00;101219.50;5086527;56;1143075;-81
2023/05/24 20:05:23;;;;;;;12.93;6.30;;;;;;;12.73;100.00;101216.01;5017645;56;1142871;-81
2023/05/24 20:10:30;;;;;;;14.43;6.47;;;;;;;12.73;100.00;101210.70;5099870;56;1142924;-81
2023/05/24 20:15:36;;;;;;;11.03;6.33;;;;;;;12.75;100.00;101211.43;5027590;56;1143048;-79
2023/05/24 20:20:41;;;;;;;7.83;5.27;;;;;;;12.73;100.00;101216.48;5024985;56;1142954;-79
2023/05/24 20:25:47;;;;;;;9.20;5.23;;;;;;;12.71;100.00;101207.30;4910453;57;1141072;-79
2023/05/24 20:30:52;;;;;;;9.03;5.07;;;;;;;12.71;100.00;101205.13;5025522;56;1140807;-79
2023/05/24 20:35:59;;;;;;;9.13;6.33;;;;;;;12.70;100.00;101206.94;5023783;56;1140859;-80
2023/05/24 20:41:05;;;;;;;6.97;4.58;;;;;;;12.70;100.00;101210.92;5024183;56;1140896;-80
2023/05/24 20:46:14;;;;;;;8.78;4.80;;;;;;;12.68;100.00;101204.40;5041367;56;1141034;-80
2023/05/24 20:51:21;;;;;;;11.20;6.08;;;;;;;12.67;100.00;101211.18;5022669;57;1140831;-81
2023/05/24 20:56:26;;;;;;;6.40;4.50;;;;;;;12.68;100.00;101215.50;5022372;56;1143029;-80
2023/05/24 21:01:32;;;;;;;8.47;4.87;;;;;;;12.70;100.00;101217.56;5042856;57;1140676;-81
2023/05/24 21:06:39;;;;;;;7.87;5.27;;;;;;;12.71;100.00;101219.25;5023107;56;1140706;-80
2023/05/24 21:11:45;;;;;;;7.13;5.03;;;;;;;12.76;100.00;101222.89;5023380;56;1140788;-80
2023/05/24 21:16:51;;;;;;;8.70;4.77;;;;;;;12.76;100.00;101221.09;5028506;57;1140982;-80
2023/05/24 21:21:56;;;;;;;9.03;4.27;;;;;;;12.72;100.00;101214.31;4911876;58;1141105;-80
2023/05/24 21:27:02;;;;;;;6.73;4.90;;;;;;;12.72;100.00;101229.39;4982868;57;1141079;-80
2023/05/24 21:32:08;;;;;;;6.87;4.67;;;;;;;12.71;100.00;101230.34;5057990;56;1140870;-80
2023/05/24 21:37:13;;;;;;;5.55;4.42;;;;;;;12.72;100.00;101232.89;5099106;56;1140778;-80
2023/05/24 21:42:19;;;;;;;5.27;4.63;;;;;;;12.71;100.00;101231.67;5100157;56;1140798;-80
2023/05/24 21:47:25;;;;;;;8.03;4.67;;;;;;;12.69;100.00;101230.46;5122048;56;1140838;-81
2023/05/24 21:52:30;;;;;;;11.47;5.80;;;;;;;12.73;100.00;101238.56;5107628;56;1140847;-80
2023/05/24 21:57:36;;;;;;;7.20;4.70;;;;;;;12.68;100.00;101234.92;5107802;56;1142907;-80
2023/05/24 22:02:41;;;;;;;12.50;5.93;;;;;;;12.69;100.00;101232.63;5128021;56;1140766;-81
2023/05/24 22:07:47;;;;;;;13.18;5.22;;;;;;;12.66;100.00;101236.87;5107506;56;1142964;-81
2023/05/24 22:12:53;;;;;;;10.97;6.00;;;;;;;12.67;100.00;101241.70;5107904;56;1142944;-81
2023/05/24 22:18:00;;;;;;;7.97;5.23;;;;;;;12.67;100.00;101238.56;5073974;56;1143091;-80
2023/05/24 22:23:06;;;;;;;8.20;6.17;;;;;;;12.67;100.00;101238.56;5043907;57;1141067;-80
2023/05/24 22:28:12;;;;;;;8.57;5.23;;;;;;;12.65;100.00;101247.12;5106000;56;1140860;-81
2023/05/24 22:33:18;;;;;;;10.43;5.73;;;;;;;12.66;100.00;101246.16;5116780;56;1140919;-80
2023/05/24 22:38:24;;;;;;;15.10;5.75;;;;;;;12.66;100.00;101250.63;5085424;56;1142908;-81
2023/05/24 22:43:30;;;;;;;8.23;5.83;;;;;;;12.64;100.00;101247.23;5043391;57;1142993;-80
2023/05/24 22:48:35;;;;;;;11.63;6.67;;;;;;;12.57;100.00;101241.52;5043753;57;1140781;-81